Time;durP1;ratioP1;P1;durP2;ratioP2;P2;SDS_P1;SDS_P2;PMS_P1;PMS_P2;Temp;Humidity;BMP_temperature;BMP_pressure;BME280_temperature;BME280_humidity;BME280_pressure;Samples;Min_cycle;Max_cycle;Signal;HPM_P1;HPM_P2
2024/04/10 00:00:23;;;;;;;16.05;3.60;;;11.60;98.80;;;;;;2247356;26;19998;-70
2024/04/10 00:01:24;;;;;;;13.43;2.92;;;11.60;98.90;;;;;;2245986;26;19999;-71
2024/04/10 00:02:24;;;;;;;10.00;3.55;;;11.60;98.90;;;;;;2243562;26;20003;-70
2024/04/10 00:03:29;;;;;;;12.80;4.25;;;11.60;98.90;;;;;;2243299;26;20010;-70
2024/04/10 00:04:29;;;;;;;11.82;3.10;;;11.60;98.90;;;;;;2244610;26;20504;-70
2024/04/10 00:05:30;;;;;;;14.40;3.25;;;11.60;98.90;;;;;;2245182;26;20014;-70
2024/04/10 00:06:33;;;;;;;16.23;3.72;;;11.60;98.90;;;;;;2244373;26;20346;-71
2024/04/10 00:07:34;;;;;;;12.52;3.40;;;11.60;98.90;;;;;;2241584;26;20018;-70
2024/04/10 00:08:36;;;;;;;8.30;2.20;;;11.60;98.90;;;;;;2244754;26;20371;-70
2024/04/10 00:09:36;;;;;;;10.63;2.58;;;11.60;98.90;;;;;;2245461;26;20074;-70
2024/04/10 00:10:37;;;;;;;12.25;2.95;;;11.60;98.80;;;;;;2242754;26;20011;-70
2024/04/10 00:11:37;;;;;;;11.95;2.90;;;11.60;98.80;;;;;;2243925;26;20006;-70
2024/04/10 00:12:38;;;;;;;10.93;3.78;;;11.60;98.80;;;;;;2246078;26;19999;-70
2024/04/10 00:13:39;;;;;;;14.45;2.92;;;11.60;98.80;;;;;;2243865;26;20057;-72
2024/04/10 00:14:39;;;;;;;10.55;2.80;;;11.60;98.80;;;;;;2244787;26;20006;-71
2024/04/10 00:15:40;;;;;;;10.60;2.80;;;11.60;98.90;;;;;;2244423;26;20021;-71
2024/04/10 00:16:40;;;;;;;8.73;2.90;;;11.60;98.90;;;;;;2243708;26;20009;-70
2024/04/10 00:17:41;;;;;;;11.52;3.28;;;11.50;98.90;;;;;;2246541;26;21082;-70
2024/04/10 00:18:43;;;;;;;8.55;2.38;;;11.50;98.90;;;;;;2246822;26;19999;-70
2024/04/10 00:19:51;;;;;;;9.40;3.10;;;11.50;99.00;;;;;;2241231;26;19999;-70
2024/04/10 00:20:52;;;;;;;9.35;3.03;;;11.50;99.00;;;;;;2247097;26;20541;-70
2024/04/10 00:21:59;;;;;;;14.52;3.78;;;11.50;98.90;;;;;;2241980;26;20552;-70
2024/04/10 00:23:01;;;;;;;14.02;3.17;;;11.50;99.00;;;;;;2242202;26;20426;-70
2024/04/10 00:24:02;;;;;;;12.32;3.00;;;11.50;99.00;;;;;;2245107;26;20371;-70
2024/04/10 00:26:37;;;;;;;12.30;3.25;;;11.50;99.00;;;;;;2252524;26;20396;-71
2024/04/10 00:27:38;;;;;;;10.57;2.83;;;11.40;99.20;;;;;;2253491;26;20083;-71
2024/04/10 00:28:39;;;;;;;18.77;3.47;;;11.40;99.20;;;;;;2251362;26;19995;-70
2024/04/10 00:29:39;;;;;;;13.63;2.92;;;11.40;99.20;;;;;;2252360;26;20354;-71
2024/04/10 00:30:40;;;;;;;16.08;3.00;;;11.40;99.20;;;;;;2254512;26;20003;-71
2024/04/10 00:31:42;;;;;;;13.38;3.70;;;11.40;99.20;;;;;;2250926;26;20444;-71
2024/04/10 00:32:47;;;;;;;13.57;3.28;;;11.40;99.20;;;;;;2252910;26;20013;-71
2024/04/10 00:33:47;;;;;;;10.45;2.55;;;11.40;99.20;;;;;;2255901;26;21482;-71
2024/04/10 00:34:48;;;;;;;11.63;2.97;;;11.40;99.20;;;;;;2252339;26;20003;-71
2024/04/10 00:36:00;;;;;;;8.93;2.63;;;11.40;99.20;;;;;;2251757;26;20003;-70
2024/04/10 00:37:01;;;;;;;13.13;3.20;;;11.30;99.30;;;;;;2250833;26;19999;-70
2024/04/10 00:38:01;;;;;;;14.30;3.17;;;11.30;99.20;;;;;;2251604;26;20006;-70
2024/04/10 00:39:07;;;;;;;11.00;3.15;;;11.30;99.30;;;;;;2243797;26;20011;-70
2024/04/10 00:40:11;;;;;;;16.48;3.13;;;11.30;99.30;;;;;;2256946;26;20059;-71
2024/04/10 00:41:12;;;;;;;12.02;2.80;;;11.30;99.30;;;;;;2250792;26;19995;-70
2024/04/10 00:42:13;;;;;;;14.70;3.08;;;11.30;99.30;;;;;;2251566;26;20003;-70
2024/04/10 00:43:15;;;;;;;13.07;3.67;;;11.30;99.30;;;;;;2252580;26;20010;-70
2024/04/10 00:44:16;;;;;;;10.55;3.20;;;11.30;99.30;;;;;;2251825;26;20618;-70
2024/04/10 00:45:16;;;;;;;13.05;3.05;;;11.30;99.20;;;;;;2252754;26;19999;-70
2024/04/10 00:46:20;;;;;;;10.02;2.55;;;11.30;99.30;;;;;;2249041;26;20010;-72
2024/04/10 00:47:23;;;;;;;12.35;3.20;;;11.30;99.30;;;;;;2251732;26;20010;-71
2024/04/10 00:48:24;;;;;;;14.27;3.88;;;11.30;99.30;;;;;;2253912;26;20018;-71
2024/04/10 00:49:26;;;;;;;14.15;3.20;;;11.30;99.30;;;;;;2251800;26;20050;-71
2024/04/10 00:50:27;;;;;;;13.57;2.83;;;11.30;99.30;;;;;;2249773;26;19999;-71
2024/04/10 00:51:28;;;;;;;13.40;3.10;;;11.20;99.30;;;;;;2257347;26;20614;-70
2024/04/10 00:52:29;;;;;;;9.90;3.10;;;11.30;99.30;;;;;;2240176;26;20102;-69
2024/04/10 00:53:30;;;;;;;14.77;2.70;;;11.20;99.30;;;;;;2239737;26;20015;-70
2024/04/10 00:54:34;;;;;;;10.60;3.30;;;11.20;99.30;;;;;;2252133;26;20010;-71
2024/04/10 00:55:35;;;;;;;11.18;3.13;;;11.20;99.40;;;;;;2251382;26;20035;-70
2024/04/10 00:56:35;;;;;;;15.10;3.38;;;11.20;99.40;;;;;;2251366;26;20013;-70
2024/04/10 00:57:37;;;;;;;16.40;3.95;;;11.20;99.40;;;;;;2253532;26;20014;-70
2024/04/10 00:58:41;;;;;;;13.48;3.08;;;11.20;99.40;;;;;;2252859;26;20014;-71
2024/04/10 00:59:42;;;;;;;12.55;2.90;;;11.20;99.40;;;;;;2251277;26;20467;-70
2024/04/10 01:00:42;;;;;;;16.27;3.00;;;11.20;99.40;;;;;;2254285;26;20337;-71
2024/04/10 01:01:43;;;;;;;12.93;3.80;;;11.20;99.40;;;;;;2254048;26;20451;-72
2024/04/10 01:02:46;;;;;;;14.52;3.53;;;11.20;99.40;;;;;;2251086;26;20018;-72
2024/04/10 01:03:46;;;;;;;8.98;2.83;;;11.20;99.40;;;;;;2252745;26;20021;-69
2024/04/10 01:04:50;;;;;;;11.60;3.40;;;11.20;99.30;;;;;;2252556;26;20633;-70
2024/04/10 01:05:58;;;;;;;12.32;3.05;;;11.20;99.40;;;;;;2251123;26;20458;-70
2024/04/10 01:07:06;;;;;;;14.80;3.63;;;11.10;99.30;;;;;;2250618;26;19999;-70
2024/04/10 01:08:06;;;;;;;13.88;2.80;;;11.20;99.40;;;;;;2254236;26;20040;-70
2024/04/10 01:09:07;;;;;;;14.38;3.35;;;11.10;99.30;;;;;;2254300;26;20040;-70
2024/04/10 01:10:07;;;;;;;13.65;3.30;;;11.10;99.30;;;;;;2253396;26;20490;-70
2024/04/10 01:11:08;;;;;;;11.48;2.95;;;11.10;99.30;;;;;;2252566;26;19994;-70
2024/04/10 01:12:09;;;;;;;15.43;3.70;;;11.10;99.20;;;;;;2252032;26;20010;-70
2024/04/10 01:13:09;;;;;;;17.17;4.07;;;11.10;99.30;;;;;;2252100;26;20088;-69
2024/04/10 01:14:10;;;;;;;12.93;4.00;;;11.10;99.30;;;;;;2249661;26;20049;-70
2024/04/10 01:15:10;;;;;;;19.65;4.00;;;11.10;99.30;;;;;;2251087;26;20006;-70
2024/04/10 01:16:11;;;;;;;11.95;3.13;;;11.10;99.30;;;;;;2252311;26;20031;-70
2024/04/10 01:17:12;;;;;;;11.38;2.80;;;11.10;99.30;;;;;;2251576;26;20013;-70
2024/04/10 01:18:12;;;;;;;12.05;3.40;;;11.10;99.30;;;;;;2251993;26;19995;-70
2024/04/10 01:19:13;;;;;;;15.15;4.22;;;11.10;99.30;;;;;;2251448;26;20069;-70
2024/04/10 01:20:13;;;;;;;18.48;3.30;;;11.10;99.30;;;;;;2254205;26;20033;-70
2024/04/10 01:21:14;;;;;;;18.38;3.67;;;11.00;99.30;;;;;;2251233;26;19995;-70
2024/04/10 01:22:14;;;;;;;16.35;3.45;;;11.00;99.30;;;;;;2252110;26;20009;-70
2024/04/10 01:23:18;;;;;;;15.00;3.30;;;11.00;99.30;;;;;;2251559;26;20009;-70
2024/04/10 01:24:19;;;;;;;12.52;3.13;;;11.00;99.30;;;;;;2252352;26;20002;-70
2024/04/10 01:25:19;;;;;;;16.08;3.20;;;11.00;99.30;;;;;;2251961;26;20002;-70
2024/04/10 01:26:20;;;;;;;13.07;2.83;;;11.00;99.30;;;;;;2263785;26;20006;-70
2024/04/10 01:27:20;;;;;;;14.00;3.72;;;11.00;99.30;;;;;;2255815;26;20038;-70
2024/04/10 01:28:21;;;;;;;14.23;3.47;;;11.00;99.30;;;;;;2255123;26;20332;-70
2024/04/10 01:29:22;;;;;;;20.08;4.03;;;11.00;99.30;;;;;;2266289;26;19998;-70
2024/04/10 01:30:22;;;;;;;15.98;3.75;;;11.00;99.30;;;;;;2266337;26;20657;-70
2024/04/10 01:31:26;;;;;;;10.82;2.78;;;11.00;99.30;;;;;;2265047;26;19999;-70
2024/04/10 01:32:27;;;;;;;11.82;3.00;;;11.00;99.30;;;;;;2267534;25;20465;-70
2024/04/10 01:33:27;;;;;;;12.75;3.08;;;11.00;99.30;;;;;;2267417;26;20328;-69
2024/04/10 01:34:28;;;;;;;12.20;3.22;;;11.00;99.30;;;;;;2267456;26;19995;-69
2024/04/10 01:35:29;;;;;;;11.30;2.85;;;11.00;99.30;;;;;;2267823;26;19994;-70
2024/04/10 01:36:30;;;;;;;14.38;3.17;;;11.00;99.30;;;;;;2267773;26;20016;-70
2024/04/10 01:37:31;;;;;;;10.15;3.10;;;11.00;99.40;;;;;;2259235;26;20068;-70
2024/04/10 01:38:31;;;;;;;14.30;3.75;;;11.00;99.40;;;;;;2260481;26;20007;-69
2024/04/10 01:39:32;;;;;;;10.35;3.00;;;11.00;99.40;;;;;;2260181;26;20364;-70
2024/04/10 01:40:32;;;;;;;13.50;2.85;;;10.90;99.40;;;;;;2261463;26;20014;-70
2024/04/10 01:41:33;;;;;;;15.32;3.65;;;10.90;99.40;;;;;;2260356;26;20078;-70
2024/04/10 01:42:33;;;;;;;16.08;3.70;;;10.90;99.40;;;;;;2262099;26;19991;-70
2024/04/10 01:43:34;;;;;;;11.88;3.05;;;10.90;99.40;;;;;;2259492;26;19998;-70
2024/04/10 01:44:34;;;;;;;12.23;2.80;;;10.90;99.40;;;;;;2257255;26;19999;-70
2024/04/10 01:45:38;;;;;;;13.63;2.70;;;10.90;99.40;;;;;;2260038;26;20009;-70
2024/04/10 01:46:38;;;;;;;13.25;3.08;;;10.90;99.40;;;;;;2257961;26;20014;-71
2024/04/10 01:47:39;;;;;;;16.65;3.45;;;10.90;99.40;;;;;;2260633;26;21111;-70
2024/04/10 01:48:39;;;;;;;12.73;3.72;;;10.90;99.40;;;;;;2259409;26;20007;-69
2024/04/10 01:49:40;;;;;;;13.70;3.47;;;10.90;99.40;;;;;;2255399;26;20661;-70
2024/04/10 01:50:42;;;;;;;14.18;3.40;;;10.90;99.40;;;;;;2261177;26;20014;-70
2024/04/10 01:51:43;;;;;;;15.40;3.13;;;10.90;99.40;;;;;;2263092;26;20070;-70
2024/04/10 01:52:43;;;;;;;10.60;3.10;;;10.90;99.50;;;;;;2256051;26;20011;-70
2024/04/10 01:53:44;;;;;;;15.25;3.90;;;10.90;99.50;;;;;;2257511;26;20002;-70
2024/04/10 01:54:46;;;;;;;13.25;2.70;;;10.80;99.50;;;;;;2261681;26;20003;-70
2024/04/10 01:55:46;;;;;;;12.43;3.75;;;10.80;99.50;;;;;;2258520;26;20016;-70
2024/04/10 01:56:47;;;;;;;13.80;3.25;;;10.80;99.60;;;;;;2251015;26;21083;-70
2024/04/10 01:57:47;;;;;;;15.40;3.15;;;10.80;99.60;;;;;;2252267;26;20010;-70
2024/04/10 01:58:48;;;;;;;10.70;3.35;;;10.80;99.60;;;;;;2259834;26;20076;-70
2024/04/10 01:59:49;;;;;;;11.10;3.28;;;10.80;99.60;;;;;;2260063;26;20094;-70
2024/04/10 02:00:49;;;;;;;17.00;3.70;;;10.80;99.70;;;;;;2260217;26;20002;-70
2024/04/10 02:01:50;;;;;;;12.60;3.33;;;10.80;99.70;;;;;;2261850;26;20022;-70
2024/04/10 02:02:50;;;;;;;16.30;3.65;;;10.80;99.70;;;;;;2259245;26;20003;-69
2024/04/10 02:03:51;;;;;;;11.38;3.35;;;10.70;99.70;;;;;;2264052;26;19998;-70
2024/04/10 02:04:51;;;;;;;13.73;4.55;;;10.70;99.70;;;;;;2244439;26;20081;-70
2024/04/10 02:05:52;;;;;;;13.93;3.42;;;10.70;99.80;;;;;;2245478;26;20007;-70
2024/04/10 02:06:52;;;;;;;15.25;3.35;;;10.70;99.80;;;;;;2260134;26;20466;-70
2024/04/10 02:07:53;;;;;;;17.42;3.10;;;10.70;99.80;;;;;;2261784;26;19995;-70
2024/04/10 02:08:53;;;;;;;9.85;3.13;;;10.70;99.90;;;;;;2258107;26;20031;-70
2024/04/10 02:09:54;;;;;;;19.58;4.45;;;10.70;99.80;;;;;;2245064;26;20038;-70
2024/04/10 02:10:59;;;;;;;12.98;3.40;;;10.70;99.90;;;;;;2243597;26;20021;-69
2024/04/10 02:12:02;;;;;;;13.43;3.78;;;10.70;99.90;;;;;;2260582;26;20075;-69
2024/04/10 02:13:03;;;;;;;13.10;3.00;;;10.70;99.90;;;;;;2244139;26;20575;-70
2024/04/10 02:14:04;;;;;;;13.48;3.88;;;10.70;99.90;;;;;;2243970;26;20425;-70
2024/04/10 02:15:05;;;;;;;9.85;3.00;;;10.70;99.90;;;;;;2258856;26;20043;-69
2024/04/10 02:16:06;;;;;;;16.80;3.78;;;10.70;99.90;;;;;;2259342;26;20013;-69
2024/04/10 02:17:06;;;;;;;17.30;4.10;;;10.60;99.90;;;;;;2260507;26;20027;-70
2024/04/10 02:18:06;;;;;;;20.17;4.82;;;10.60;99.90;;;;;;2262172;26;20446;-70
2024/04/10 02:19:07;;;;;;;17.33;3.03;;;10.60;99.90;;;;;;2259219;26;20014;-70
2024/04/10 02:20:09;;;;;;;14.50;4.10;;;10.60;99.90;;;;;;2248140;26;20352;-70
2024/04/10 02:21:10;;;;;;;16.10;3.63;;;10.60;99.90;;;;;;2251052;26;20844;-70
2024/04/10 02:22:10;;;;;;;11.20;3.42;;;10.60;99.90;;;;;;2260738;26;20715;-70
2024/04/10 02:23:11;;;;;;;13.02;2.95;;;10.60;99.90;;;;;;2263064;26;20002;-70
2024/04/10 02:24:11;;;;;;;13.73;3.65;;;10.60;99.90;;;;;;2260727;26;19998;-70
2024/04/10 02:25:12;;;;;;;13.35;3.38;;;10.60;99.90;;;;;;2260222;26;20006;-69
2024/04/10 02:26:13;;;;;;;12.25;3.05;;;10.60;99.90;;;;;;2259968;26;20479;-70
2024/04/10 02:27:14;;;;;;;14.25;3.50;;;10.60;99.90;;;;;;2260235;26;20447;-69
2024/04/10 02:28:14;;;;;;;11.40;3.45;;;10.60;99.90;;;;;;2261454;26;20358;-70
2024/04/10 02:29:15;;;;;;;13.02;3.33;;;10.60;99.90;;;;;;2263018;26;20010;-69
2024/04/10 02:30:15;;;;;;;16.83;3.22;;;10.60;99.90;;;;;;2257604;26;20462;-70
2024/04/10 02:31:16;;;;;;;14.18;3.42;;;10.60;99.90;;;;;;2257334;26;20100;-70
2024/04/10 02:32:16;;;;;;;20.75;4.03;;;10.60;99.90;;;;;;2259767;26;20002;-70
2024/04/10 02:33:17;;;;;;;14.38;3.47;;;10.60;99.90;;;;;;2261264;26;20390;-70
2024/04/10 02:34:17;;;;;;;16.70;3.92;;;10.60;99.90;;;;;;2259217;26;20014;-70
2024/04/10 02:35:18;;;;;;;13.57;3.67;;;10.60;99.90;;;;;;2248107;26;20540;-70
2024/04/10 02:36:19;;;;;;;15.07;3.60;;;10.60;99.90;;;;;;2249643;26;20017;-70
2024/04/10 02:37:19;;;;;;;18.08;3.30;;;10.60;99.90;;;;;;2264650;26;19998;-70
2024/04/10 02:38:20;;;;;;;11.40;3.30;;;10.60;99.90;;;;;;2243580;26;20072;-70
2024/04/10 02:39:21;;;;;;;12.32;3.85;;;10.60;99.90;;;;;;2244859;26;20108;-70
2024/04/10 02:40:21;;;;;;;10.57;3.38;;;10.60;99.90;;;;;;2243275;26;20077;-70
2024/04/10 02:41:22;;;;;;;18.83;3.15;;;10.60;99.90;;;;;;2247524;26;20018;-70
2024/04/10 02:42:22;;;;;;;15.60;4.38;;;10.60;99.90;;;;;;2259709;26;20017;-70
2024/04/10 02:43:23;;;;;;;12.45;2.88;;;10.60;99.90;;;;;;2262951;26;20046;-70
2024/04/10 02:44:24;;;;;;;12.15;3.35;;;10.60;99.90;;;;;;2256544;26;20002;-68
2024/04/10 02:45:24;;;;;;;14.73;4.10;;;10.60;99.90;;;;;;2261574;26;20003;-67
2024/04/10 02:46:26;;;;;;;15.25;3.25;;;10.60;99.90;;;;;;2257662;26;20073;-67
2024/04/10 02:47:26;;;;;;;10.63;3.40;;;10.50;99.90;;;;;;2259482;26;20048;-67
2024/04/10 02:48:27;;;;;;;13.57;3.65;;;10.50;99.90;;;;;;2260545;26;20582;-68
2024/04/10 02:49:28;;;;;;;14.77;3.53;;;10.60;99.90;;;;;;2259054;26;20599;-68
2024/04/10 02:50:28;;;;;;;18.25;3.92;;;10.50;99.90;;;;;;2263241;26;19998;-68
2024/04/10 02:51:29;;;;;;;18.58;4.35;;;10.50;99.90;;;;;;2259097;26;20046;-68
2024/04/10 02:52:30;;;;;;;12.93;3.03;;;10.50;99.90;;;;;;2258964;26;20067;-67
2024/04/10 02:53:31;;;;;;;14.40;3.90;;;10.50;99.90;;;;;;2261613;26;20451;-69
2024/04/10 02:54:31;;;;;;;15.10;3.58;;;10.50;99.90;;;;;;2259602;26;20355;-69
2024/04/10 02:55:32;;;;;;;11.80;3.22;;;10.50;99.90;;;;;;2261510;26;20006;-69
2024/04/10 02:56:32;;;;;;;13.93;3.45;;;10.50;99.90;;;;;;2259787;26;20075;-67
2024/04/10 02:57:33;;;;;;;15.60;3.78;;;10.40;99.90;;;;;;2260957;26;20017;-67
2024/04/10 02:58:33;;;;;;;13.38;2.95;;;10.40;99.90;;;;;;2261257;26;20003;-68
2024/04/10 02:59:34;;;;;;;12.23;3.25;;;10.40;99.90;;;;;;2262287;26;20481;-67
2024/04/10 03:00:50;;;;;;;21.90;4.65;;;10.40;99.90;;;;;;2258861;26;19999;-68
2024/04/10 03:01:51;;;;;;;14.88;3.63;;;10.40;99.90;;;;;;2259152;26;20017;-67
2024/04/10 03:02:52;;;;;;;16.25;3.00;;;10.40;99.90;;;;;;2258944;26;20030;-67
2024/04/10 03:03:52;;;;;;;16.90;3.95;;;10.40;99.90;;;;;;2259739;26;20035;-68
2024/04/10 03:04:53;;;;;;;13.05;3.22;;;10.40;99.90;;;;;;2257731;26;20014;-67
2024/04/10 03:06:03;;;;;;;15.00;4.32;;;10.30;99.90;;;;;;2260140;26;20002;-68
2024/04/10 03:07:03;;;;;;;15.32;4.25;;;10.30;99.90;;;;;;2259123;26;20011;-70
2024/04/10 03:08:05;;;;;;;15.07;3.60;;;10.30;99.90;;;;;;2256202;26;20025;-68
2024/04/10 03:09:05;;;;;;;16.00;3.75;;;10.30;99.90;;;;;;2249757;26;20344;-67
2024/04/10 03:10:08;;;;;;;12.20;3.55;;;10.30;99.90;;;;;;2247860;26;19999;-68
2024/04/10 03:11:10;;;;;;;15.77;3.88;;;10.30;99.90;;;;;;2262384;26;20074;-68
2024/04/10 03:12:11;;;;;;;17.70;4.05;;;10.30;99.90;;;;;;2264144;26;20102;-69
2024/04/10 03:13:12;;;;;;;17.42;3.40;;;10.30;99.90;;;;;;2258939;26;20017;-69
2024/04/10 03:14:12;;;;;;;12.10;2.97;;;10.30;99.90;;;;;;2258646;26;20017;-69
2024/04/10 03:15:16;;;;;;;15.13;3.92;;;10.30;99.90;;;;;;2260316;26;20010;-69
2024/04/10 03:16:16;;;;;;;9.80;2.80;;;10.30;99.90;;;;;;2260542;26;20009;-69
2024/04/10 03:17:17;;;;;;;12.85;3.28;;;10.20;99.90;;;;;;2260039;26;20017;-69
2024/04/10 03:18:18;;;;;;;17.83;3.75;;;10.30;99.90;;;;;;2260758;26;20014;-69
2024/04/10 03:19:20;;;;;;;10.73;3.42;;;10.30;99.90;;;;;;2261945;26;20017;-69
2024/04/10 03:20:21;;;;;;;12.05;3.22;;;10.20;99.90;;;;;;2255819;26;20003;-69
2024/04/10 03:21:21;;;;;;;12.13;3.22;;;10.20;99.90;;;;;;2258142;26;20035;-69
2024/04/10 03:22:22;;;;;;;16.75;3.88;;;10.20;99.90;;;;;;2259472;26;20016;-68
2024/04/10 03:23:22;;;;;;;16.25;3.78;;;10.20;99.90;;;;;;2231456;26;20003;-68
2024/04/10 03:24:23;;;;;;;17.90;3.65;;;10.20;99.90;;;;;;2233885;26;20004;-68
2024/04/10 03:25:23;;;;;;;15.38;3.55;;;10.20;99.90;;;;;;2261167;26;20002;-68
2024/04/10 03:26:24;;;;;;;16.33;3.17;;;10.20;99.90;;;;;;2257966;26;20002;-67
2024/04/10 03:27:25;;;;;;;9.77;2.67;;;10.20;99.90;;;;;;2260146;26;20199;-67
2024/04/10 03:28:25;;;;;;;14.60;3.55;;;10.20;99.90;;;;;;2258325;26;20002;-68
2024/04/10 03:29:26;;;;;;;14.50;3.72;;;10.20;99.90;;;;;;2258658;26;20074;-68
2024/04/10 03:30:27;;;;;;;16.35;4.30;;;10.30;99.90;;;;;;2263814;26;20001;-68
2024/04/10 03:31:27;;;;;;;16.55;3.50;;;10.20;99.90;;;;;;2256456;26;20471;-68
2024/04/10 03:32:31;;;;;;;13.52;3.63;;;10.20;99.90;;;;;;2241377;26;20018;-67
2024/04/10 03:33:32;;;;;;;17.17;4.05;;;10.20;99.90;;;;;;2246085;26;20011;-67
2024/04/10 03:34:36;;;;;;;15.15;4.13;;;10.30;99.90;;;;;;2257599;26;20005;-67
2024/04/10 03:35:38;;;;;;;19.70;3.67;;;10.30;99.90;;;;;;2258877;26;20467;-67
2024/04/10 03:36:38;;;;;;;13.65;3.75;;;10.30;99.90;;;;;;2262763;26;20002;-70
2024/04/10 03:37:40;;;;;;;19.88;3.75;;;10.30;99.90;;;;;;2259876;26;20129;-68
2024/04/10 03:38:40;;;;;;;14.90;3.45;;;10.30;99.90;;;;;;2258452;26;20003;-68
2024/04/10 03:39:41;;;;;;;14.15;3.83;;;10.30;99.90;;;;;;2259367;26;20517;-68
2024/04/10 03:40:42;;;;;;;17.63;4.28;;;10.30;99.90;;;;;;2258587;26;20078;-67
2024/04/10 03:41:42;;;;;;;17.85;4.15;;;10.30;99.90;;;;;;2260235;26;20766;-68
2024/04/10 03:42:43;;;;;;;15.13;4.03;;;10.30;99.90;;;;;;2260707;26;21255;-67
2024/04/10 03:43:44;;;;;;;16.27;4.13;;;10.30;99.90;;;;;;2260074;26;20096;-67
2024/04/10 03:44:44;;;;;;;17.33;4.32;;;10.30;99.90;;;;;;2259949;26;19998;-69
2024/04/10 03:45:49;;;;;;;14.75;3.90;;;10.30;99.90;;;;;;2256216;26;20018;-66
2024/04/10 03:46:49;;;;;;;15.70;3.65;;;10.30;99.90;;;;;;2259297;26;20014;-67
2024/04/10 03:47:50;;;;;;;11.60;3.25;;;10.30;99.90;;;;;;2259308;26;20009;-66
2024/04/10 03:48:50;;;;;;;14.95;3.70;;;10.30;99.90;;;;;;2258033;26;20007;-67
2024/04/10 03:49:51;;;;;;;15.65;3.40;;;10.30;99.90;;;;;;2261147;26;20005;-67
2024/04/10 03:50:58;;;;;;;11.13;3.53;;;10.20;99.90;;;;;;2261430;26;19998;-66
2024/04/10 03:51:59;;;;;;;14.80;3.47;;;10.20;99.90;;;;;;2256307;26;20003;-69
2024/04/10 03:52:59;;;;;;;17.50;4.43;;;10.20;99.90;;;;;;2248503;26;19998;-69
2024/04/10 03:54:00;;;;;;;15.05;4.22;;;10.20;99.90;;;;;;2235152;26;19999;-70
2024/04/10 03:55:00;;;;;;;16.65;3.85;;;10.20;99.90;;;;;;2245220;26;20018;-67
2024/04/10 03:56:01;;;;;;;15.55;3.55;;;10.20;99.90;;;;;;2259335;26;20025;-67
2024/04/10 03:57:02;;;;;;;14.98;3.92;;;10.20;99.90;;;;;;2258319;26;20492;-69
2024/04/10 03:58:03;;;;;;;12.25;3.70;;;10.20;99.90;;;;;;2257602;26;20006;-67
2024/04/10 03:59:04;;;;;;;17.38;3.67;;;10.20;99.90;;;;;;2259641;26;20008;-69
2024/04/10 04:00:05;;;;;;;14.98;3.35;;;10.20;99.90;;;;;;2259764;26;20002;-67
2024/04/10 04:01:05;;;;;;;15.35;4.00;;;10.20;99.90;;;;;;2260144;26;20333;-69
2024/04/10 04:02:06;;;;;;;17.23;3.65;;;10.20;99.90;;;;;;2257315;26;20405;-69
2024/04/10 04:03:07;;;;;;;13.77;3.72;;;10.20;99.90;;;;;;2257224;26;20002;-69
2024/04/10 04:04:07;;;;;;;13.82;3.72;;;10.20;99.90;;;;;;2261359;26;19998;-69
2024/04/10 04:05:08;;;;;;;17.48;3.92;;;10.10;99.90;;;;;;2261474;26;19998;-67
2024/04/10 04:06:09;;;;;;;16.30;3.78;;;10.20;99.90;;;;;;2261719;26;20009;-66
2024/04/10 04:07:10;;;;;;;15.45;3.97;;;10.10;99.90;;;;;;2260885;26;20029;-67
2024/04/10 04:08:12;;;;;;;13.32;3.85;;;10.10;99.90;;;;;;2257819;26;19998;-69
2024/04/10 04:09:12;;;;;;;16.85;4.07;;;10.10;99.90;;;;;;2257490;26;20002;-67
2024/04/10 04:10:13;;;;;;;18.15;3.97;;;10.10;99.90;;;;;;2260689;26;20009;-67
2024/04/10 04:11:14;;;;;;;16.85;3.90;;;10.10;99.90;;;;;;2259090;26;19997;-67
2024/04/10 04:12:15;;;;;;;17.25;4.07;;;10.10;99.90;;;;;;2249177;26;19995;-67
2024/04/10 04:13:15;;;;;;;13.88;3.92;;;10.10;99.90;;;;;;2245214;26;20006;-67
2024/04/10 04:14:16;;;;;;;15.30;4.10;;;10.10;99.90;;;;;;2256174;26;19999;-67
2024/04/10 04:15:17;;;;;;;17.08;4.43;;;10.10;99.90;;;;;;2260475;26;20086;-67
2024/04/10 04:16:17;;;;;;;16.67;3.78;;;10.10;99.90;;;;;;2257327;26;20116;-68
2024/04/10 04:17:19;;;;;;;15.02;3.90;;;10.10;99.90;;;;;;2258000;26;19999;-67
2024/04/10 04:18:19;;;;;;;11.60;3.38;;;10.10;99.90;;;;;;2260596;26;20037;-67
2024/04/10 04:19:20;;;;;;;15.30;3.50;;;10.10;99.90;;;;;;2261280;26;20008;-67
2024/04/10 04:20:20;;;;;;;12.82;2.95;;;10.10;99.90;;;;;;2257487;26;20006;-67
2024/04/10 04:21:21;;;;;;;16.08;3.88;;;10.10;99.90;;;;;;2255260;26;20005;-68
2024/04/10 04:22:21;;;;;;;15.25;3.70;;;10.10;99.90;;;;;;2261008;26;20020;-67
2024/04/10 04:23:22;;;;;;;11.25;3.20;;;10.10;99.90;;;;;;2257403;26;20005;-68
2024/04/10 04:24:22;;;;;;;11.57;3.63;;;10.10;99.90;;;;;;2258573;26;21096;-70
2024/04/10 04:25:23;;;;;;;17.10;4.28;;;10.10;99.90;;;;;;2256252;26;20067;-68
2024/04/10 04:26:24;;;;;;;15.48;3.97;;;10.10;99.90;;;;;;2259126;26;20006;-67
2024/04/10 04:27:30;;;;;;;16.25;3.72;;;10.10;99.90;;;;;;2260395;26;20335;-68
2024/04/10 04:28:30;;;;;;;12.20;3.63;;;10.10;99.90;;;;;;2261466;26;20010;-68
2024/04/10 04:29:33;;;;;;;14.15;3.42;;;10.10;99.90;;;;;;2260174;26;20009;-69
2024/04/10 04:30:34;;;;;;;16.50;3.72;;;10.10;99.90;;;;;;2259681;26;20013;-67
2024/04/10 04:31:34;;;;;;;16.17;4.25;;;10.20;99.90;;;;;;2260987;26;19998;-68
2024/04/10 04:32:35;;;;;;;16.33;3.72;;;10.10;99.90;;;;;;2244265;26;20034;-69
2024/04/10 04:33:35;;;;;;;23.98;5.10;;;10.20;99.90;;;;;;2244274;26;19998;-70
2024/04/10 04:34:36;;;;;;;13.32;4.15;;;10.20;99.90;;;;;;2262714;26;19998;-69
2024/04/10 04:35:36;;;;;;;14.90;3.78;;;10.20;99.90;;;;;;2240088;26;20007;-70
2024/04/10 04:36:39;;;;;;;19.75;4.57;;;10.20;99.90;;;;;;2243174;26;19995;-69
2024/04/10 04:37:39;;;;;;;16.85;4.45;;;10.20;99.90;;;;;;2257862;26;20014;-70
2024/04/10 04:38:40;;;;;;;13.98;4.18;;;10.20;99.90;;;;;;2261053;26;20363;-69
2024/04/10 04:39:41;;;;;;;17.35;4.10;;;10.20;99.90;;;;;;2259886;26;19995;-69
2024/04/10 04:40:42;;;;;;;15.00;3.88;;;10.20;99.90;;;;;;2258204;26;20002;-69
2024/04/10 04:41:42;;;;;;;14.57;3.75;;;10.20;99.90;;;;;;2259312;26;20013;-69
2024/04/10 04:42:43;;;;;;;14.18;4.57;;;10.20;99.90;;;;;;2263711;26;20532;-69
2024/04/10 04:43:43;;;;;;;16.10;4.85;;;10.20;99.90;;;;;;2260503;26;20009;-69
2024/04/10 04:44:44;;;;;;;27.73;5.25;;;10.30;99.90;;;;;;2262401;26;20347;-69
2024/04/10 04:45:44;;;;;;;18.58;4.53;;;10.20;99.90;;;;;;2259705;26;19999;-71
2024/04/10 04:46:45;;;;;;;16.70;4.32;;;10.20;99.90;;;;;;2261625;26;20010;-69
2024/04/10 04:47:45;;;;;;;17.50;4.85;;;10.30;99.90;;;;;;2254727;26;19999;-68
2024/04/10 04:48:46;;;;;;;17.98;4.63;;;10.20;99.90;;;;;;2256736;26;20413;-67
2024/04/10 04:49:46;;;;;;;14.25;4.13;;;10.30;99.90;;;;;;2257704;26;19998;-69
2024/04/10 04:50:48;;;;;;;13.98;4.10;;;10.30;99.90;;;;;;2256576;26;20628;-67
2024/04/10 04:51:48;;;;;;;14.45;4.07;;;10.30;99.90;;;;;;2257008;26;19999;-67
2024/04/10 04:52:50;;;;;;;17.63;4.85;;;10.30;99.90;;;;;;2255636;26;20037;-67
2024/04/10 04:53:50;;;;;;;13.25;3.50;;;10.30;99.90;;;;;;2246685;26;20068;-67
2024/04/10 04:54:51;;;;;;;16.35;5.28;;;10.30;99.90;;;;;;2250392;26;20077;-67
2024/04/10 04:55:51;;;;;;;19.17;4.93;;;10.30;99.90;;;;;;2259040;26;20509;-68
2024/04/10 04:56:52;;;;;;;15.65;4.80;;;10.30;99.90;;;;;;2261274;26;20006;-67
2024/04/10 04:57:53;;;;;;;21.85;4.35;;;10.30;99.90;;;;;;2258381;26;20002;-67
2024/04/10 04:58:53;;;;;;;16.02;4.30;;;10.30;99.90;;;;;;2257924;26;20019;-69
2024/04/10 04:59:54;;;;;;;14.70;4.18;;;10.30;99.90;;;;;;2258506;26;20006;-69
2024/04/10 05:00:56;;;;;;;12.68;4.18;;;10.30;99.90;;;;;;2258577;26;20002;-71
2024/04/10 05:01:56;;;;;;;16.15;4.25;;;10.30;99.90;;;;;;2262028;26;20046;-69
2024/04/10 05:02:57;;;;;;;14.10;4.03;;;10.30;99.90;;;;;;2261427;26;19998;-68
2024/04/10 05:05:18;;;;;;;13.57;4.80;;;10.30;99.90;;;;;;2262385;26;20029;-69
2024/04/10 05:06:19;;;;;;;17.33;4.75;;;10.30;99.90;;;;;;2258312;26;20012;-69
2024/04/10 05:07:19;;;;;;;13.65;4.03;;;10.30;99.90;;;;;;2256038;26;20014;-69
2024/04/10 05:08:20;;;;;;;10.70;4.57;;;10.40;99.90;;;;;;2257920;26;20017;-68
2024/04/10 05:09:20;;;;;;;14.95;4.00;;;10.30;99.90;;;;;;2260684;26;19998;-68
2024/04/10 05:10:21;;;;;;;15.63;4.00;;;10.30;99.90;;;;;;2261420;26;20703;-68
2024/04/10 05:11:22;;;;;;;17.63;4.40;;;10.40;99.90;;;;;;2257513;26;19999;-68
2024/04/10 05:12:22;;;;;;;12.63;4.43;;;10.40;99.90;;;;;;2260360;26;20002;-68
2024/04/10 05:13:23;;;;;;;13.52;3.83;;;10.40;99.90;;;;;;2261576;26;19998;-66
2024/04/10 05:14:24;;;;;;;16.17;4.20;;;10.40;99.90;;;;;;2258607;26;20591;-69
2024/04/10 05:15:24;;;;;;;12.95;3.55;;;10.40;99.90;;;;;;2258962;26;20034;-67
2024/04/10 05:16:25;;;;;;;16.35;3.78;;;10.40;99.90;;;;;;2264618;26;20010;-69
2024/04/10 05:17:26;;;;;;;13.63;4.43;;;10.40;99.90;;;;;;2258222;26;19998;-69